Terminal Aerodrome Forecast
Issued by NWS

Current Version | Previous Version | Text Only | Print | Product List | Glossary On
Versions: 1 2 3 4 5 6 7 8 9 10 11 12
349
FTUS44 KCRP 091724
TAFALI
TAF
KALI 091724Z 0918/1018 34010KT P6SM SKC
     FM100000 VRB04KT P6SM SKC=

USA.gov is the U.S. government's official web portal to all federal, state and local government web resources and services.